sensor_id;sensor_type;location;lat;lon;timestamp;P1;durP1;ratioP1;P2;durP2;ratioP2
61962;SDS011;47927;42.646;23.096;2023-07-08T00:01:22;14.23;;;12.13;;
61962;SDS011;47927;42.646;23.096;2023-07-08T00:03:48;16.38;;;14.23;;
61962;SDS011;47927;42.646;23.096;2023-07-08T00:06:18;17.27;;;13.30;;
61962;SDS011;47927;42.646;23.096;2023-07-08T00:08:46;15.82;;;13.40;;
61962;SDS011;47927;42.646;23.096;2023-07-08T00:11:12;19.20;;;13.82;;
61962;SDS011;47927;42.646;23.096;2023-07-08T00:13:39;19.80;;;14.65;;
61962;SDS011;47927;42.646;23.096;2023-07-08T00:16:04;18.25;;;14.93;;
61962;SDS011;47927;42.646;23.096;2023-07-08T00:18:37;18.17;;;14.20;;
61962;SDS011;47927;42.646;23.096;2023-07-08T00:21:04;17.02;;;13.88;;
61962;SDS011;47927;42.646;23.096;2023-07-08T00:23:33;17.70;;;13.18;;
61962;SDS011;47927;42.646;23.096;2023-07-08T00:26:01;18.98;;;13.38;;
61962;SDS011;47927;42.646;23.096;2023-07-08T00:28:27;15.68;;;13.10;;
61962;SDS011;47927;42.646;23.096;2023-07-08T00:30:52;20.80;;;13.43;;
61962;SDS011;47927;42.646;23.096;2023-07-08T00:33:19;17.90;;;13.40;;
61962;SDS011;47927;42.646;23.096;2023-07-08T00:35:45;18.83;;;13.57;;
61962;SDS011;47927;42.646;23.096;2023-07-08T00:38:15;17.10;;;14.13;;
61962;SDS011;47927;42.646;23.096;2023-07-08T00:43:24;17.17;;;12.68;;
61962;SDS011;47927;42.646;23.096;2023-07-08T00:51:32;14.55;;;13.02;;
61962;SDS011;47927;42.646;23.096;2023-07-08T00:54:14;19.13;;;13.13;;
61962;SDS011;47927;42.646;23.096;2023-07-08T00:56:42;18.27;;;13.10;;
61962;SDS011;47927;42.646;23.096;2023-07-08T00:59:34;15.65;;;13.43;;
61962;SDS011;47927;42.646;23.096;2023-07-08T01:02:03;14.43;;;12.85;;
61962;SDS011;47927;42.646;23.096;2023-07-08T01:04:34;15.70;;;12.70;;
61962;SDS011;47927;42.646;23.096;2023-07-08T01:07:25;18.67;;;12.73;;
61962;SDS011;47927;42.646;23.096;2023-07-08T01:09:52;14.07;;;12.32;;
61962;SDS011;47927;42.646;23.096;2023-07-08T01:12:34;16.20;;;12.40;;
61962;SDS011;47927;42.646;23.096;2023-07-08T01:15:05;15.75;;;12.70;;
61962;SDS011;47927;42.646;23.096;2023-07-08T01:17:32;13.88;;;12.43;;
61962;SDS011;47927;42.646;23.096;2023-07-08T01:20:02;16.55;;;13.13;;
61962;SDS011;47927;42.646;23.096;2023-07-08T01:22:38;14.43;;;11.90;;
61962;SDS011;47927;42.646;23.096;2023-07-08T01:25:05;16.08;;;12.65;;
61962;SDS011;47927;42.646;23.096;2023-07-08T01:27:33;15.35;;;12.70;;
61962;SDS011;47927;42.646;23.096;2023-07-08T01:30:02;15.18;;;12.65;;
61962;SDS011;47927;42.646;23.096;2023-07-08T01:32:28;17.08;;;12.20;;
61962;SDS011;47927;42.646;23.096;2023-07-08T01:34:58;13.40;;;11.20;;
61962;SDS011;47927;42.646;23.096;2023-07-08T01:42:51;14.25;;;11.93;;
61962;SDS011;47927;42.646;23.096;2023-07-08T01:45:19;14.02;;;12.23;;
61962;SDS011;47927;42.646;23.096;2023-07-08T01:47:50;31.23;;;12.88;;
61962;SDS011;47927;42.646;23.096;2023-07-08T01:50:20;15.50;;;12.80;;
61962;SDS011;47927;42.646;23.096;2023-07-08T01:52:47;16.00;;;12.88;;
61962;SDS011;47927;42.646;23.096;2023-07-08T01:55:15;18.52;;;14.13;;
61962;SDS011;47927;42.646;23.096;2023-07-08T01:57:41;18.42;;;12.95;;
61962;SDS011;47927;42.646;23.096;2023-07-08T02:00:07;16.55;;;13.18;;
61962;SDS011;47927;42.646;23.096;2023-07-08T02:02:38;17.23;;;13.30;;
61962;SDS011;47927;42.646;23.096;2023-07-08T02:05:05;16.00;;;13.20;;
61962;SDS011;47927;42.646;23.096;2023-07-08T02:07:31;18.02;;;12.85;;
61962;SDS011;47927;42.646;23.096;2023-07-08T02:09:56;19.02;;;13.95;;
61962;SDS011;47927;42.646;23.096;2023-07-08T02:12:22;15.25;;;11.93;;
61962;SDS011;47927;42.646;23.096;2023-07-08T02:15:06;15.88;;;12.57;;
61962;SDS011;47927;42.646;23.096;2023-07-08T02:17:33;17.63;;;12.63;;
61962;SDS011;47927;42.646;23.096;2023-07-08T02:19:59;14.60;;;12.13;;
61962;SDS011;47927;42.646;23.096;2023-07-08T02:22:24;15.00;;;11.23;;
61962;SDS011;47927;42.646;23.096;2023-07-08T02:24:50;13.70;;;11.38;;
61962;SDS011;47927;42.646;23.096;2023-07-08T02:27:15;14.80;;;11.48;;
61962;SDS011;47927;42.646;23.096;2023-07-08T02:29:41;18.75;;;11.05;;
61962;SDS011;47927;42.646;23.096;2023-07-08T02:32:08;12.35;;;10.85;;
61962;SDS011;47927;42.646;23.096;2023-07-08T02:34:35;14.35;;;12.10;;
61962;SDS011;47927;42.646;23.096;2023-07-08T02:37:01;18.00;;;11.45;;
61962;SDS011;47927;42.646;23.096;2023-07-08T02:39:27;18.13;;;12.00;;
61962;SDS011;47927;42.646;23.096;2023-07-08T02:41:52;16.08;;;12.02;;
61962;SDS011;47927;42.646;23.096;2023-07-08T02:44:18;12.73;;;11.38;;
61962;SDS011;47927;42.646;23.096;2023-07-08T02:46:43;18.42;;;12.95;;
61962;SDS011;47927;42.646;23.096;2023-07-08T02:49:09;15.60;;;13.35;;
61962;SDS011;47927;42.646;23.096;2023-07-08T02:51:34;14.50;;;12.20;;
61962;SDS011;47927;42.646;23.096;2023-07-08T02:54:00;15.07;;;13.05;;
61962;SDS011;47927;42.646;23.096;2023-07-08T02:56:25;17.70;;;12.63;;
61962;SDS011;47927;42.646;23.096;2023-07-08T02:58:53;15.93;;;12.35;;
61962;SDS011;47927;42.646;23.096;2023-07-08T03:01:37;15.32;;;12.93;;
61962;SDS011;47927;42.646;23.096;2023-07-08T03:04:10;14.52;;;11.60;;
61962;SDS011;47927;42.646;23.096;2023-07-08T03:06:43;13.10;;;11.57;;
61962;SDS011;47927;42.646;23.096;2023-07-08T03:09:09;17.75;;;12.27;;
61962;SDS011;47927;42.646;23.096;2023-07-08T03:11:40;14.02;;;11.48;;
61962;SDS011;47927;42.646;23.096;2023-07-08T03:14:05;17.77;;;12.23;;
61962;SDS011;47927;42.646;23.096;2023-07-08T03:16:31;13.20;;;11.13;;
61962;SDS011;47927;42.646;23.096;2023-07-08T03:18:57;17.48;;;12.35;;
61962;SDS011;47927;42.646;23.096;2023-07-08T03:21:23;12.27;;;10.75;;
61962;SDS011;47927;42.646;23.096;2023-07-08T03:23:50;15.15;;;12.73;;
61962;SDS011;47927;42.646;23.096;2023-07-08T03:26:21;13.98;;;11.80;;
61962;SDS011;47927;42.646;23.096;2023-07-08T03:28:49;15.52;;;12.18;;
61962;SDS011;47927;42.646;23.096;2023-07-08T03:31:16;15.27;;;11.90;;
61962;SDS011;47927;42.646;23.096;2023-07-08T03:33:42;15.00;;;12.25;;
61962;SDS011;47927;42.646;23.096;2023-07-08T03:36:12;14.35;;;12.68;;
61962;SDS011;47927;42.646;23.096;2023-07-08T03:38:48;13.55;;;12.05;;
61962;SDS011;47927;42.646;23.096;2023-07-08T03:41:18;13.13;;;10.98;;
61962;SDS011;47927;42.646;23.096;2023-07-08T03:43:44;13.43;;;11.10;;
61962;SDS011;47927;42.646;23.096;2023-07-08T03:46:11;14.32;;;11.35;;
61962;SDS011;47927;42.646;23.096;2023-07-08T03:48:38;12.40;;;10.48;;
61962;SDS011;47927;42.646;23.096;2023-07-08T03:51:15;15.98;;;11.30;;
61962;SDS011;47927;42.646;23.096;2023-07-08T03:53:47;14.15;;;12.30;;
61962;SDS011;47927;42.646;23.096;2023-07-08T03:56:13;14.85;;;13.02;;
61962;SDS011;47927;42.646;23.096;2023-07-08T03:58:39;13.30;;;11.93;;
61962;SDS011;47927;42.646;23.096;2023-07-08T04:01:18;14.13;;;11.20;;
61962;SDS011;47927;42.646;23.096;2023-07-08T04:03:46;16.00;;;9.55;;
61962;SDS011;47927;42.646;23.096;2023-07-08T04:06:12;16.02;;;9.30;;
61962;SDS011;47927;42.646;23.096;2023-07-08T04:08:39;9.73;;;8.50;;
61962;SDS011;47927;42.646;23.096;2023-07-08T04:11:05;9.20;;;7.90;;
61962;SDS011;47927;42.646;23.096;2023-07-08T04:13:31;9.75;;;8.02;;
61962;SDS011;47927;42.646;23.096;2023-07-08T04:15:58;8.43;;;7.22;;
61962;SDS011;47927;42.646;23.096;2023-07-08T04:18:24;9.10;;;6.55;;
61962;SDS011;47927;42.646;23.096;2023-07-08T04:20:51;8.25;;;6.50;;
61962;SDS011;47927;42.646;23.096;2023-07-08T04:23:18;13.32;;;6.78;;
61962;SDS011;47927;42.646;23.096;2023-07-08T04:25:47;10.07;;;7.82;;
61962;SDS011;47927;42.646;23.096;2023-07-08T04:28:15;10.00;;;8.32;;
61962;SDS011;47927;42.646;23.096;2023-07-08T04:30:41;9.90;;;7.28;;
61962;SDS011;47927;42.646;23.096;2023-07-08T04:33:08;11.88;;;7.18;;
61962;SDS011;47927;42.646;23.096;2023-07-08T04:35:34;9.20;;;7.72;;
61962;SDS011;47927;42.646;23.096;2023-07-08T04:38:06;10.90;;;7.25;;
61962;SDS011;47927;42.646;23.096;2023-07-08T04:40:37;9.98;;;6.85;;
61962;SDS011;47927;42.646;23.096;2023-07-08T04:43:04;9.18;;;6.32;;
61962;SDS011;47927;42.646;23.096;2023-07-08T04:45:34;8.45;;;6.70;;
61962;SDS011;47927;42.646;23.096;2023-07-08T04:48:00;10.20;;;6.15;;
61962;SDS011;47927;42.646;23.096;2023-07-08T04:50:34;8.15;;;5.93;;
61962;SDS011;47927;42.646;23.096;2023-07-08T04:53:00;8.85;;;6.53;;
61962;SDS011;47927;42.646;23.096;2023-07-08T04:55:27;12.10;;;6.53;;
61962;SDS011;47927;42.646;23.096;2023-07-08T04:57:53;8.60;;;5.90;;
61962;SDS011;47927;42.646;23.096;2023-07-08T05:00:18;10.85;;;5.95;;
61962;SDS011;47927;42.646;23.096;2023-07-08T05:02:44;7.70;;;5.82;;
61962;SDS011;47927;42.646;23.096;2023-07-08T05:05:10;9.68;;;5.72;;
61962;SDS011;47927;42.646;23.096;2023-07-08T05:07:36;7.10;;;5.72;;
61962;SDS011;47927;42.646;23.096;2023-07-08T05:10:01;11.05;;;5.82;;
61962;SDS011;47927;42.646;23.096;2023-07-08T05:12:27;8.35;;;5.95;;
61962;SDS011;47927;42.646;23.096;2023-07-08T05:14:53;10.75;;;5.72;;
61962;SDS011;47927;42.646;23.096;2023-07-08T05:17:19;10.55;;;6.32;;
61962;SDS011;47927;42.646;23.096;2023-07-08T05:19:44;9.90;;;6.03;;
61962;SDS011;47927;42.646;23.096;2023-07-08T05:22:11;12.70;;;6.70;;
61962;SDS011;47927;42.646;23.096;2023-07-08T05:24:37;11.77;;;6.60;;
61962;SDS011;47927;42.646;23.096;2023-07-08T05:27:03;8.05;;;5.97;;
61962;SDS011;47927;42.646;23.096;2023-07-08T05:29:29;9.57;;;5.85;;
61962;SDS011;47927;42.646;23.096;2023-07-08T05:31:54;8.50;;;6.07;;
61962;SDS011;47927;42.646;23.096;2023-07-08T05:34:20;9.75;;;6.05;;
61962;SDS011;47927;42.646;23.096;2023-07-08T05:36:46;11.98;;;6.30;;
61962;SDS011;47927;42.646;23.096;2023-07-08T05:39:11;8.15;;;6.05;;
61962;SDS011;47927;42.646;23.096;2023-07-08T05:41:37;7.93;;;5.70;;
61962;SDS011;47927;42.646;23.096;2023-07-08T05:44:02;7.13;;;5.55;;
61962;SDS011;47927;42.646;23.096;2023-07-08T05:46:28;7.95;;;6.20;;
61962;SDS011;47927;42.646;23.096;2023-07-08T05:48:54;9.85;;;5.60;;
61962;SDS011;47927;42.646;23.096;2023-07-08T05:51:20;8.77;;;5.90;;
61962;SDS011;47927;42.646;23.096;2023-07-08T05:53:45;9.82;;;5.60;;
61962;SDS011;47927;42.646;23.096;2023-07-08T05:56:11;9.05;;;5.90;;
61962;SDS011;47927;42.646;23.096;2023-07-08T05:58:36;12.00;;;5.57;;
61962;SDS011;47927;42.646;23.096;2023-07-08T06:01:02;9.35;;;6.20;;
61962;SDS011;47927;42.646;23.096;2023-07-08T06:03:27;8.50;;;6.00;;
61962;SDS011;47927;42.646;23.096;2023-07-08T06:05:53;9.30;;;6.60;;
61962;SDS011;47927;42.646;23.096;2023-07-08T06:08:19;7.15;;;6.10;;
61962;SDS011;47927;42.646;23.096;2023-07-08T06:10:44;9.82;;;5.55;;
61962;SDS011;47927;42.646;23.096;2023-07-08T06:13:11;10.60;;;7.22;;
61962;SDS011;47927;42.646;23.096;2023-07-08T06:15:37;11.63;;;7.10;;
61962;SDS011;47927;42.646;23.096;2023-07-08T06:18:04;10.95;;;6.13;;
61962;SDS011;47927;42.646;23.096;2023-07-08T06:20:30;10.10;;;5.45;;
61962;SDS011;47927;42.646;23.096;2023-07-08T06:22:56;9.07;;;6.18;;
61962;SDS011;47927;42.646;23.096;2023-07-08T06:25:21;7.30;;;5.63;;
61962;SDS011;47927;42.646;23.096;2023-07-08T06:27:47;18.08;;;6.18;;
61962;SDS011;47927;42.646;23.096;2023-07-08T06:30:12;10.15;;;5.75;;
61962;SDS011;47927;42.646;23.096;2023-07-08T06:32:38;8.02;;;5.50;;
61962;SDS011;47927;42.646;23.096;2023-07-08T06:35:03;6.63;;;3.92;;
61962;SDS011;47927;42.646;23.096;2023-07-08T06:37:29;9.38;;;5.88;;
61962;SDS011;47927;42.646;23.096;2023-07-08T06:39:55;8.75;;;4.07;;
61962;SDS011;47927;42.646;23.096;2023-07-08T06:42:20;6.28;;;3.78;;
61962;SDS011;47927;42.646;23.096;2023-07-08T06:44:55;6.25;;;4.20;;
61962;SDS011;47927;42.646;23.096;2023-07-08T06:47:21;6.97;;;3.97;;
61962;SDS011;47927;42.646;23.096;2023-07-08T06:49:47;9.10;;;4.30;;
61962;SDS011;47927;42.646;23.096;2023-07-08T06:52:13;5.72;;;3.85;;
61962;SDS011;47927;42.646;23.096;2023-07-08T06:54:39;6.00;;;4.10;;
61962;SDS011;47927;42.646;23.096;2023-07-08T06:57:05;5.90;;;4.18;;
61962;SDS011;47927;42.646;23.096;2023-07-08T06:59:32;6.25;;;4.60;;
61962;SDS011;47927;42.646;23.096;2023-07-08T07:01:58;8.00;;;4.78;;
61962;SDS011;47927;42.646;23.096;2023-07-08T07:04:23;7.70;;;4.40;;
61962;SDS011;47927;42.646;23.096;2023-07-08T07:06:49;6.10;;;4.45;;
61962;SDS011;47927;42.646;23.096;2023-07-08T07:09:14;7.20;;;5.07;;
61962;SDS011;47927;42.646;23.096;2023-07-08T07:11:40;8.00;;;4.35;;
61962;SDS011;47927;42.646;23.096;2023-07-08T07:14:05;5.45;;;4.13;;
61962;SDS011;47927;42.646;23.096;2023-07-08T07:16:31;7.10;;;4.60;;
61962;SDS011;47927;42.646;23.096;2023-07-08T07:18:57;7.93;;;4.22;;
61962;SDS011;47927;42.646;23.096;2023-07-08T07:21:22;5.65;;;4.60;;
61962;SDS011;47927;42.646;23.096;2023-07-08T07:23:48;7.88;;;4.43;;
61962;SDS011;47927;42.646;23.096;2023-07-08T07:26:13;8.63;;;4.47;;
61962;SDS011;47927;42.646;23.096;2023-07-08T07:28:39;6.25;;;4.32;;
61962;SDS011;47927;42.646;23.096;2023-07-08T07:31:05;7.50;;;4.78;;
61962;SDS011;47927;42.646;23.096;2023-07-08T07:33:31;7.00;;;4.32;;
61962;SDS011;47927;42.646;23.096;2023-07-08T07:35:57;5.20;;;4.10;;
61962;SDS011;47927;42.646;23.096;2023-07-08T07:38:23;7.75;;;4.30;;
61962;SDS011;47927;42.646;23.096;2023-07-08T07:40:53;5.07;;;4.32;;
61962;SDS011;47927;42.646;23.096;2023-07-08T07:43:19;7.15;;;4.03;;
61962;SDS011;47927;42.646;23.096;2023-07-08T07:45:49;5.30;;;4.00;;
61962;SDS011;47927;42.646;23.096;2023-07-08T07:48:16;7.20;;;4.95;;
61962;SDS011;47927;42.646;23.096;2023-07-08T07:50:44;6.50;;;4.70;;
61962;SDS011;47927;42.646;23.096;2023-07-08T07:53:11;5.30;;;4.10;;
61962;SDS011;47927;42.646;23.096;2023-07-08T07:55:37;6.60;;;3.60;;
61962;SDS011;47927;42.646;23.096;2023-07-08T07:58:02;4.78;;;3.78;;
61962;SDS011;47927;42.646;23.096;2023-07-08T08:00:30;9.57;;;4.20;;
61962;SDS011;47927;42.646;23.096;2023-07-08T08:02:55;5.00;;;3.63;;
61962;SDS011;47927;42.646;23.096;2023-07-08T08:05:21;4.93;;;3.63;;
61962;SDS011;47927;42.646;23.096;2023-07-08T08:07:47;7.97;;;3.60;;
61962;SDS011;47927;42.646;23.096;2023-07-08T08:10:13;5.93;;;3.97;;
61962;SDS011;47927;42.646;23.096;2023-07-08T08:12:39;6.68;;;4.07;;
61962;SDS011;47927;42.646;23.096;2023-07-08T08:15:05;5.15;;;3.53;;
61962;SDS011;47927;42.646;23.096;2023-07-08T08:17:31;6.10;;;3.88;;
61962;SDS011;47927;42.646;23.096;2023-07-08T08:19:56;5.57;;;4.15;;
61962;SDS011;47927;42.646;23.096;2023-07-08T08:22:22;6.75;;;4.47;;
61962;SDS011;47927;42.646;23.096;2023-07-08T08:24:47;5.35;;;3.78;;
61962;SDS011;47927;42.646;23.096;2023-07-08T08:27:14;4.85;;;3.90;;
61962;SDS011;47927;42.646;23.096;2023-07-08T08:29:39;6.35;;;3.38;;
61962;SDS011;47927;42.646;23.096;2023-07-08T08:32:05;10.00;;;3.85;;
61962;SDS011;47927;42.646;23.096;2023-07-08T08:34:31;5.20;;;3.92;;
61962;SDS011;47927;42.646;23.096;2023-07-08T08:36:57;5.82;;;3.97;;
61962;SDS011;47927;42.646;23.096;2023-07-08T08:39:23;4.30;;;3.10;;
61962;SDS011;47927;42.646;23.096;2023-07-08T08:41:49;5.43;;;3.45;;
61962;SDS011;47927;42.646;23.096;2023-07-08T08:44:20;4.72;;;3.38;;
61962;SDS011;47927;42.646;23.096;2023-07-08T08:46:58;4.50;;;3.38;;
61962;SDS011;47927;42.646;23.096;2023-07-08T08:52:09;4.53;;;2.83;;
61962;SDS011;47927;42.646;23.096;2023-07-08T08:54:34;5.07;;;3.00;;
61962;SDS011;47927;42.646;23.096;2023-07-08T08:59:51;5.80;;;3.80;;
61962;SDS011;47927;42.646;23.096;2023-07-08T09:05:08;4.35;;;2.70;;
61962;SDS011;47927;42.646;23.096;2023-07-08T09:13:30;6.30;;;3.45;;
61962;SDS011;47927;42.646;23.096;2023-07-08T09:18:41;5.03;;;2.60;;
61962;SDS011;47927;42.646;23.096;2023-07-08T09:21:19;6.18;;;3.70;;
61962;SDS011;47927;42.646;23.096;2023-07-08T09:23:50;6.25;;;3.80;;
61962;SDS011;47927;42.646;23.096;2023-07-08T09:26:21;4.80;;;3.55;;
61962;SDS011;47927;42.646;23.096;2023-07-08T09:28:48;4.07;;;2.85;;
61962;SDS011;47927;42.646;23.096;2023-07-08T09:33:54;6.72;;;3.40;;
61962;SDS011;47927;42.646;23.096;2023-07-08T09:36:38;5.55;;;3.10;;
61962;SDS011;47927;42.646;23.096;2023-07-08T09:39:08;5.43;;;3.30;;
61962;SDS011;47927;42.646;23.096;2023-07-08T09:41:35;4.28;;;3.17;;
61962;SDS011;47927;42.646;23.096;2023-07-08T09:44:18;5.18;;;2.90;;
61962;SDS011;47927;42.646;23.096;2023-07-08T09:46:44;4.40;;;3.05;;
61962;SDS011;47927;42.646;23.096;2023-07-08T09:51:47;6.15;;;3.63;;
61962;SDS011;47927;42.646;23.096;2023-07-08T09:54:16;4.55;;;3.42;;
61962;SDS011;47927;42.646;23.096;2023-07-08T09:57:32;5.57;;;3.30;;
61962;SDS011;47927;42.646;23.096;2023-07-08T09:59:45;4.00;;;2.70;;
61962;SDS011;47927;42.646;23.096;2023-07-08T10:02:26;4.55;;;2.90;;
61962;SDS011;47927;42.646;23.096;2023-07-08T10:04:52;4.35;;;2.80;;
61962;SDS011;47927;42.646;23.096;2023-07-08T15:20:48;5.00;;;2.42;;
61962;SDS011;47927;42.646;23.096;2023-07-08T15:23:14;5.00;;;2.88;;
61962;SDS011;47927;42.646;23.096;2023-07-08T15:25:40;5.05;;;2.50;;
61962;SDS011;47927;42.646;23.096;2023-07-08T15:28:19;5.60;;;3.13;;
61962;SDS011;47927;42.646;23.096;2023-07-08T15:30:58;5.53;;;3.05;;
61962;SDS011;47927;42.646;23.096;2023-07-08T15:33:26;6.10;;;3.30;;
61962;SDS011;47927;42.646;23.096;2023-07-08T15:35:52;5.32;;;3.22;;
61962;SDS011;47927;42.646;23.096;2023-07-08T15:38:18;8.00;;;2.92;;
61962;SDS011;47927;42.646;23.096;2023-07-08T15:40:43;5.07;;;2.92;;
61962;SDS011;47927;42.646;23.096;2023-07-08T15:43:11;5.68;;;2.75;;
61962;SDS011;47927;42.646;23.096;2023-07-08T15:48:08;6.85;;;3.17;;
61962;SDS011;47927;42.646;23.096;2023-07-08T15:50:38;5.63;;;2.65;;
61962;SDS011;47927;42.646;23.096;2023-07-08T15:53:03;5.40;;;2.70;;
61962;SDS011;47927;42.646;23.096;2023-07-08T15:55:32;4.70;;;2.80;;
61962;SDS011;47927;42.646;23.096;2023-07-08T15:58:01;4.97;;;2.85;;
61962;SDS011;47927;42.646;23.096;2023-07-08T16:00:30;6.25;;;2.72;;
61962;SDS011;47927;42.646;23.096;2023-07-08T16:03:00;5.70;;;2.50;;
61962;SDS011;47927;42.646;23.096;2023-07-08T16:07:54;7.63;;;2.88;;
61962;SDS011;47927;42.646;23.096;2023-07-08T16:10:20;8.45;;;2.83;;
61962;SDS011;47927;42.646;23.096;2023-07-08T16:15:23;6.60;;;2.70;;
61962;SDS011;47927;42.646;23.096;2023-07-08T16:17:55;5.03;;;2.87;;
61962;SDS011;47927;42.646;23.096;2023-07-08T16:20:22;6.28;;;2.85;;
61962;SDS011;47927;42.646;23.096;2023-07-08T16:22:49;5.43;;;2.88;;
61962;SDS011;47927;42.646;23.096;2023-07-08T16:25:16;9.57;;;3.42;;
61962;SDS011;47927;42.646;23.096;2023-07-08T16:27:44;7.00;;;3.45;;
61962;SDS011;47927;42.646;23.096;2023-07-08T16:30:13;9.50;;;3.40;;
61962;SDS011;47927;42.646;23.096;2023-07-08T16:32:41;7.45;;;3.30;;
61962;SDS011;47927;42.646;23.096;2023-07-08T16:35:08;4.78;;;2.83;;
61962;SDS011;47927;42.646;23.096;2023-07-08T16:37:37;7.57;;;2.90;;
61962;SDS011;47927;42.646;23.096;2023-07-08T16:40:04;7.20;;;3.42;;
61962;SDS011;47927;42.646;23.096;2023-07-08T16:42:32;6.95;;;2.88;;
61962;SDS011;47927;42.646;23.096;2023-07-08T16:44:58;4.45;;;2.97;;
61962;SDS011;47927;42.646;23.096;2023-07-08T16:47:23;6.85;;;3.08;;
61962;SDS011;47927;42.646;23.096;2023-07-08T16:49:49;5.88;;;3.00;;
61962;SDS011;47927;42.646;23.096;2023-07-08T16:52:14;6.38;;;2.92;;
61962;SDS011;47927;42.646;23.096;2023-07-08T16:54:41;5.63;;;3.03;;
61962;SDS011;47927;42.646;23.096;2023-07-08T16:57:07;5.32;;;2.90;;
61962;SDS011;47927;42.646;23.096;2023-07-08T16:59:36;5.63;;;2.80;;
61962;SDS011;47927;42.646;23.096;2023-07-08T17:02:07;7.63;;;3.38;;
61962;SDS011;47927;42.646;23.096;2023-07-08T17:04:36;5.32;;;3.30;;
61962;SDS011;47927;42.646;23.096;2023-07-08T17:07:02;5.10;;;2.58;;
61962;SDS011;47927;42.646;23.096;2023-07-08T17:09:27;4.97;;;2.92;;
61962;SDS011;47927;42.646;23.096;2023-07-08T17:11:53;5.63;;;2.97;;
61962;SDS011;47927;42.646;23.096;2023-07-08T17:14:18;8.15;;;3.38;;
61962;SDS011;47927;42.646;23.096;2023-07-08T17:16:44;5.10;;;3.15;;
61962;SDS011;47927;42.646;23.096;2023-07-08T17:19:13;4.47;;;2.93;;
61962;SDS011;47927;42.646;23.096;2023-07-08T17:21:38;4.72;;;3.05;;
61962;SDS011;47927;42.646;23.096;2023-07-08T17:24:04;5.53;;;2.70;;
61962;SDS011;47927;42.646;23.096;2023-07-08T17:26:30;4.95;;;2.90;;
61962;SDS011;47927;42.646;23.096;2023-07-08T17:29:14;5.75;;;2.97;;
61962;SDS011;47927;42.646;23.096;2023-07-08T17:31:40;8.18;;;3.22;;
61962;SDS011;47927;42.646;23.096;2023-07-08T17:34:10;4.18;;;2.50;;
61962;SDS011;47927;42.646;23.096;2023-07-08T17:36:52;6.97;;;3.05;;
61962;SDS011;47927;42.646;23.096;2023-07-08T17:39:18;5.25;;;2.60;;
61962;SDS011;47927;42.646;23.096;2023-07-08T17:41:45;6.93;;;3.10;;
61962;SDS011;47927;42.646;23.096;2023-07-08T17:44:32;5.38;;;3.13;;
61962;SDS011;47927;42.646;23.096;2023-07-08T17:46:58;5.82;;;2.83;;
61962;SDS011;47927;42.646;23.096;2023-07-08T17:49:25;6.63;;;2.90;;
61962;SDS011;47927;42.646;23.096;2023-07-08T17:51:51;6.75;;;2.80;;
61962;SDS011;47927;42.646;23.096;2023-07-08T17:54:16;5.65;;;3.20;;
61962;SDS011;47927;42.646;23.096;2023-07-08T17:56:42;7.30;;;2.78;;
61962;SDS011;47927;42.646;23.096;2023-07-08T17:59:13;6.53;;;2.85;;
61962;SDS011;47927;42.646;23.096;2023-07-08T18:01:43;9.75;;;3.42;;
61962;SDS011;47927;42.646;23.096;2023-07-08T18:04:09;5.47;;;3.17;;
61962;SDS011;47927;42.646;23.096;2023-07-08T18:06:35;5.93;;;3.10;;
61962;SDS011;47927;42.646;23.096;2023-07-08T18:09:00;6.43;;;3.38;;
61962;SDS011;47927;42.646;23.096;2023-07-08T18:11:26;11.48;;;3.08;;
61962;SDS011;47927;42.646;23.096;2023-07-08T18:13:54;7.45;;;3.40;;
61962;SDS011;47927;42.646;23.096;2023-07-08T18:16:22;5.85;;;3.20;;
61962;SDS011;47927;42.646;23.096;2023-07-08T18:18:52;5.00;;;2.80;;
61962;SDS011;47927;42.646;23.096;2023-07-08T18:21:19;6.40;;;2.97;;
61962;SDS011;47927;42.646;23.096;2023-07-08T18:23:47;6.70;;;3.58;;
61962;SDS011;47927;42.646;23.096;2023-07-08T18:26:15;12.98;;;3.53;;
61962;SDS011;47927;42.646;23.096;2023-07-08T18:28:41;6.82;;;3.03;;
61962;SDS011;47927;42.646;23.096;2023-07-08T18:31:08;6.18;;;3.05;;
61962;SDS011;47927;42.646;23.096;2023-07-08T18:33:36;5.00;;;2.90;;
61962;SDS011;47927;42.646;23.096;2023-07-08T18:36:01;5.63;;;3.25;;
61962;SDS011;47927;42.646;23.096;2023-07-08T18:38:30;5.63;;;3.05;;
61962;SDS011;47927;42.646;23.096;2023-07-08T18:40:56;5.93;;;2.75;;
61962;SDS011;47927;42.646;23.096;2023-07-08T18:43:23;7.18;;;3.25;;
61962;SDS011;47927;42.646;23.096;2023-07-08T18:45:50;4.75;;;2.85;;
61962;SDS011;47927;42.646;23.096;2023-07-08T18:48:17;6.95;;;3.10;;
61962;SDS011;47927;42.646;23.096;2023-07-08T18:50:46;6.88;;;2.83;;
61962;SDS011;47927;42.646;23.096;2023-07-08T18:53:16;5.20;;;2.60;;
61962;SDS011;47927;42.646;23.096;2023-07-08T18:55:42;6.75;;;3.05;;
61962;SDS011;47927;42.646;23.096;2023-07-08T18:58:09;6.32;;;2.90;;
61962;SDS011;47927;42.646;23.096;2023-07-08T19:00:36;5.00;;;2.75;;
61962;SDS011;47927;42.646;23.096;2023-07-08T19:03:02;5.30;;;2.75;;
61962;SDS011;47927;42.646;23.096;2023-07-08T19:05:32;10.55;;;2.55;;
61962;SDS011;47927;42.646;23.096;2023-07-08T19:07:58;4.93;;;2.88;;
61962;SDS011;47927;42.646;23.096;2023-07-08T19:10:26;4.68;;;2.53;;
61962;SDS011;47927;42.646;23.096;2023-07-08T19:12:54;4.95;;;2.40;;
61962;SDS011;47927;42.646;23.096;2023-07-08T19:15:22;5.47;;;2.50;;
61962;SDS011;47927;42.646;23.096;2023-07-08T19:17:50;5.15;;;2.72;;
61962;SDS011;47927;42.646;23.096;2023-07-08T19:20:17;6.20;;;2.90;;
61962;SDS011;47927;42.646;23.096;2023-07-08T19:22:44;5.35;;;2.63;;
61962;SDS011;47927;42.646;23.096;2023-07-08T19:25:15;6.95;;;2.72;;
61962;SDS011;47927;42.646;23.096;2023-07-08T19:27:43;8.65;;;2.90;;
61962;SDS011;47927;42.646;23.096;2023-07-08T19:30:09;7.32;;;2.90;;
61962;SDS011;47927;42.646;23.096;2023-07-08T19:32:37;6.97;;;3.40;;
61962;SDS011;47927;42.646;23.096;2023-07-08T19:37:52;7.50;;;2.67;;
61962;SDS011;47927;42.646;23.096;2023-07-08T19:40:19;5.75;;;3.00;;
61962;SDS011;47927;42.646;23.096;2023-07-08T19:42:47;6.50;;;3.03;;
61962;SDS011;47927;42.646;23.096;2023-07-08T19:45:32;8.85;;;3.40;;
61962;SDS011;47927;42.646;23.096;2023-07-08T19:47:57;7.60;;;3.03;;
61962;SDS011;47927;42.646;23.096;2023-07-08T19:50:26;5.00;;;3.10;;
61962;SDS011;47927;42.646;23.096;2023-07-08T19:52:53;5.07;;;2.70;;
61962;SDS011;47927;42.646;23.096;2023-07-08T19:55:19;6.32;;;2.80;;
61962;SDS011;47927;42.646;23.096;2023-07-08T19:58:05;8.07;;;3.17;;
61962;SDS011;47927;42.646;23.096;2023-07-08T20:00:53;4.57;;;2.97;;
61962;SDS011;47927;42.646;23.096;2023-07-08T20:03:18;7.97;;;2.72;;
61962;SDS011;47927;42.646;23.096;2023-07-08T20:05:44;7.55;;;2.88;;
61962;SDS011;47927;42.646;23.096;2023-07-08T20:10:36;7.22;;;2.58;;
61962;SDS011;47927;42.646;23.096;2023-07-08T20:13:02;4.93;;;2.50;;
61962;SDS011;47927;42.646;23.096;2023-07-08T20:15:29;6.00;;;2.38;;
61962;SDS011;47927;42.646;23.096;2023-07-08T20:17:55;6.18;;;2.80;;
61962;SDS011;47927;42.646;23.096;2023-07-08T20:20:23;5.15;;;2.50;;
61962;SDS011;47927;42.646;23.096;2023-07-08T20:22:51;5.85;;;2.50;;
61962;SDS011;47927;42.646;23.096;2023-07-08T20:25:18;6.18;;;2.50;;
61962;SDS011;47927;42.646;23.096;2023-07-08T20:27:47;6.35;;;2.67;;
61962;SDS011;47927;42.646;23.096;2023-07-08T20:32:40;4.88;;;2.35;;
61962;SDS011;47927;42.646;23.096;2023-07-08T20:35:06;6.32;;;2.42;;